createdAt,value
2023-02-08T00:00:11.074Z,102517.91
2023-02-08T00:02:38.002Z,102522.41
2023-02-08T00:05:05.566Z,102520.44
2023-02-08T00:07:32.478Z,102514.38
2023-02-08T00:09:59.418Z,102518.25
2023-02-08T00:12:28.290Z,102522.63
2023-02-08T00:14:56.253Z,102520.31
2023-02-08T00:17:23.215Z,102522.09
2023-02-08T00:19:50.164Z,102520.19
2023-02-08T00:22:17.063Z,102521.53
2023-02-08T00:24:43.977Z,102534.66
2023-02-08T00:27:10.885Z,102531.00
2023-02-08T00:29:38.122Z,102533.63
2023-02-08T00:32:05.378Z,102527.22
2023-02-08T00:34:32.453Z,102531.31
2023-02-08T00:36:59.320Z,102532.47
2023-02-08T00:39:26.276Z,102523.81
2023-02-08T00:41:53.230Z,102536.28
2023-02-08T00:44:20.252Z,102531.31
2023-02-08T00:46:47.168Z,102539.06
2023-02-08T00:49:14.099Z,102535.94
2023-02-08T00:51:40.996Z,102532.25
2023-02-08T00:54:14.023Z,102536.22
2023-02-08T00:56:41.362Z,102540.34
2023-02-08T00:59:08.307Z,102543.38
2023-02-08T01:01:35.465Z,102548.66
2023-02-08T01:04:02.736Z,102548.06
2023-02-08T01:06:29.622Z,102548.19
2023-02-08T01:08:56.579Z,102555.50
2023-02-08T01:11:25.466Z,102556.97
2023-02-08T01:13:54.542Z,102559.88
2023-02-08T01:16:27.405Z,102556.47
2023-02-08T01:18:56.743Z,102557.72
2023-02-08T01:21:25.981Z,102559.81
2023-02-08T01:23:53.814Z,102562.47
2023-02-08T01:26:21.823Z,102569.47
2023-02-08T01:28:49.735Z,102570.34
2023-02-08T01:31:21.499Z,102578.78
2023-02-08T01:33:49.189Z,102582.84
2023-02-08T01:36:16.806Z,102580.25
2023-02-08T01:38:45.156Z,102573.19
2023-02-08T01:41:19.692Z,102579.44
2023-02-08T01:44:17.719Z,102589.34
2023-02-08T01:46:47.478Z,102581.47
2023-02-08T01:49:31.334Z,102586.31
2023-02-08T01:52:14.255Z,102585.53
2023-02-08T01:54:46.630Z,102590.88
2023-02-08T01:57:13.917Z,102596.03
2023-02-08T01:59:52.647Z,102594.94
2023-02-08T02:02:22.289Z,102597.97
2023-02-08T02:04:51.657Z,102592.94
2023-02-08T02:07:20.405Z,102606.47
2023-02-08T02:09:56.261Z,102600.81
2023-02-08T02:12:24.132Z,102604.38
2023-02-08T02:14:51.298Z,102607.53
2023-02-08T02:17:20.019Z,102610.84
2023-02-08T02:20:11.230Z,102601.97
2023-02-08T02:22:53.279Z,102607.44
2023-02-08T02:25:48.970Z,102617.63
2023-02-08T02:28:28.117Z,102630.41
2023-02-08T02:31:11.732Z,102621.97
2023-02-08T02:33:47.730Z,102632.66
2023-02-08T02:36:28.837Z,102619.31
2023-02-08T02:39:23.768Z,102627.31
2023-02-08T02:42:17.929Z,102626.03
2023-02-08T02:44:59.723Z,102632.91
2023-02-08T02:47:33.213Z,102633.72
2023-02-08T02:50:19.931Z,102634.28
2023-02-08T02:52:55.017Z,102632.09
2023-02-08T02:55:25.687Z,102647.09
2023-02-08T02:57:54.920Z,102651.06
2023-02-08T03:00:25.333Z,102640.59
2023-02-08T03:02:52.934Z,102637.75
2023-02-08T03:05:19.828Z,102649.00
2023-02-08T03:07:58.546Z,102645.88
2023-02-08T03:10:54.355Z,102655.69
2023-02-08T03:13:33.072Z,102653.91
2023-02-08T03:16:14.850Z,102662.75
2023-02-08T03:19:00.333Z,102667.63
2023-02-08T03:21:53.345Z,102667.13
2023-02-08T03:24:27.252Z,102668.28
2023-02-08T03:27:16.745Z,102655.41
2023-02-08T03:30:09.532Z,102655.47
2023-02-08T03:32:56.333Z,102646.06
2023-02-08T03:35:29.656Z,102643.25
2023-02-08T03:38:15.840Z,102645.63
2023-02-08T03:40:47.926Z,102647.34
2023-02-08T03:43:23.562Z,102641.47
2023-02-08T03:46:21.276Z,102640.47
2023-02-08T03:48:55.081Z,102638.66
2023-02-08T03:51:24.270Z,102630.31
2023-02-08T03:53:53.758Z,102649.50
2023-02-08T03:56:46.220Z,102647.06
2023-02-08T03:59:20.584Z,102646.16
2023-02-08T04:02:08.258Z,102655.69
2023-02-08T04:04:38.147Z,102662.75
2023-02-08T04:07:05.752Z,102659.28
2023-02-08T04:09:32.785Z,102662.63
2023-02-08T04:11:59.668Z,102667.91
2023-02-08T04:14:26.554Z,102668.34
2023-02-08T04:16:53.594Z,102677.38
2023-02-08T04:19:20.546Z,102682.00
2023-02-08T04:21:47.513Z,102686.88
2023-02-08T04:24:14.466Z,102694.72
2023-02-08T04:26:41.309Z,102700.78
2023-02-08T04:29:08.273Z,102707.88
2023-02-08T04:31:35.355Z,102707.75
2023-02-08T04:34:02.939Z,102713.44
2023-02-08T04:36:29.943Z,102725.00
2023-02-08T04:38:56.846Z,102735.03
2023-02-08T04:41:23.834Z,102730.53
2023-02-08T04:43:50.720Z,102741.88
2023-02-08T04:46:17.691Z,102754.13
2023-02-08T04:48:44.684Z,102750.13
2023-02-08T04:51:11.563Z,102758.06
2023-02-08T04:53:38.459Z,102755.00
2023-02-08T04:56:05.565Z,102749.66
2023-02-08T04:58:32.515Z,102752.50
2023-02-08T05:00:59.422Z,102761.72
2023-02-08T05:03:26.358Z,102757.34
2023-02-08T05:05:58.245Z,102763.94
2023-02-08T05:08:26.972Z,102765.53
2023-02-08T05:10:53.945Z,102764.72
2023-02-08T05:13:20.804Z,102771.84
2023-02-08T05:15:47.771Z,102772.47
2023-02-08T05:18:14.680Z,102772.50
2023-02-08T05:20:41.802Z,102783.09
2023-02-08T05:23:08.876Z,102770.63
2023-02-08T05:25:35.753Z,102783.69
2023-02-08T05:28:03.256Z,102786.16
2023-02-08T05:30:30.240Z,102785.28
2023-02-08T05:32:57.152Z,102795.97
2023-02-08T05:35:24.013Z,102798.22
2023-02-08T05:37:50.831Z,102794.47
2023-02-08T05:40:18.085Z,102797.31
2023-02-08T05:42:44.987Z,102810.25
2023-02-08T05:45:11.845Z,102820.59
2023-02-08T05:47:38.715Z,102821.84
2023-02-08T05:50:06.198Z,102816.41
2023-02-08T05:52:33.462Z,102819.53
2023-02-08T05:55:00.411Z,102819.13
2023-02-08T05:57:28.357Z,102823.50
2023-02-08T05:59:56.502Z,102835.31
2023-02-08T06:02:24.471Z,102828.50
2023-02-08T06:04:51.554Z,102818.69
2023-02-08T06:07:18.542Z,102822.69
2023-02-08T06:09:47.579Z,102826.59
2023-02-08T06:12:15.462Z,102827.50
2023-02-08T06:14:42.370Z,102817.28
2023-02-08T06:17:09.262Z,102833.81
2023-02-08T06:19:36.151Z,102827.53
2023-02-08T06:22:03.016Z,102821.59
2023-02-08T06:24:29.992Z,102809.69
2023-02-08T06:26:57.261Z,102826.72
2023-02-08T06:29:24.243Z,102830.69
2023-02-08T06:31:51.286Z,102835.06
2023-02-08T06:34:18.199Z,102836.22
2023-02-08T06:36:45.902Z,102832.25
2023-02-08T06:39:12.822Z,102837.75
2023-02-08T06:41:39.703Z,102838.69
2023-02-08T06:44:06.769Z,102828.81
2023-02-08T06:46:34.173Z,102824.94
2023-02-08T06:49:01.076Z,102830.91
2023-02-08T06:51:28.128Z,102830.13
2023-02-08T06:53:55.202Z,102821.94
2023-02-08T06:56:22.553Z,102823.66
2023-02-08T06:58:49.457Z,102828.53
2023-02-08T07:01:16.556Z,102822.16
2023-02-08T07:03:43.476Z,102829.81
2023-02-08T07:06:14.768Z,102827.09
2023-02-08T07:08:42.130Z,102828.63
2023-02-08T07:11:11.459Z,102832.78
2023-02-08T07:13:39.019Z,102827.66
2023-02-08T07:16:07.109Z,102834.66
2023-02-08T07:18:34.450Z,102805.16
2023-02-08T07:21:01.751Z,102830.41
2023-02-08T07:23:28.753Z,102824.34
2023-02-08T07:26:03.085Z,102811.50
2023-02-08T07:28:30.769Z,102808.66
2023-02-08T07:30:58.141Z,102811.28
2023-02-08T07:33:25.984Z,102808.59
2023-02-08T07:35:52.894Z,102802.75
2023-02-08T07:38:20.802Z,102807.56
2023-02-08T07:40:48.082Z,102802.19
2023-02-08T07:43:15.049Z,102790.47
2023-02-08T07:45:52.244Z,102792.75
2023-02-08T07:48:19.205Z,102800.03
2023-02-08T07:50:46.116Z,102791.72
2023-02-08T07:53:13.057Z,102809.81
2023-02-08T07:55:39.892Z,102800.59
2023-02-08T07:58:06.784Z,102799.94
2023-02-08T08:00:33.694Z,102810.56
2023-02-08T08:03:00.734Z,102808.81
2023-02-08T08:05:27.626Z,102800.44
2023-02-08T08:07:54.479Z,102820.00
2023-02-08T08:10:21.508Z,102815.16
2023-02-08T08:12:48.391Z,102822.41
2023-02-08T08:15:15.337Z,102816.84
2023-02-08T08:17:42.383Z,102819.69
2023-02-08T08:20:11.347Z,102814.63
2023-02-08T08:22:38.319Z,102817.53
2023-02-08T08:25:06.412Z,102818.66
2023-02-08T08:27:34.062Z,102825.44
2023-02-08T08:30:01.929Z,102821.28
2023-02-08T08:32:28.984Z,102819.75
2023-02-08T08:34:55.865Z,102810.78
2023-02-08T08:37:22.914Z,102810.56
2023-02-08T08:39:49.873Z,102813.03
2023-02-08T08:42:16.819Z,102810.78
2023-02-08T08:44:44.774Z,102830.19
2023-02-08T08:47:12.636Z,102816.84
2023-02-08T08:49:39.738Z,102821.91
2023-02-08T08:52:08.036Z,102817.38
2023-02-08T08:54:35.444Z,102817.22
2023-02-08T08:57:05.885Z,102815.09
2023-02-08T08:59:33.657Z,102822.91
2023-02-08T09:02:00.885Z,102809.53
2023-02-08T09:04:27.839Z,102809.50
2023-02-08T09:06:54.980Z,102819.97
2023-02-08T09:09:22.848Z,102812.13
2023-02-08T09:11:50.041Z,102819.53
2023-02-08T09:14:19.530Z,102802.91
2023-02-08T09:16:48.239Z,102804.22
2023-02-08T09:19:16.148Z,102811.47
2023-02-08T09:21:43.261Z,102806.56
2023-02-08T09:24:10.442Z,102813.75
2023-02-08T09:26:38.298Z,102808.22
2023-02-08T09:29:06.608Z,102808.06
2023-02-08T09:31:39.795Z,102797.50
2023-02-08T09:34:07.306Z,102790.09
2023-02-08T09:36:37.652Z,102808.03
2023-02-08T09:39:10.294Z,102798.81
2023-02-08T09:42:18.949Z,102811.59
2023-02-08T09:45:08.817Z,102808.00
2023-02-08T09:47:37.810Z,102820.50
2023-02-08T09:50:13.132Z,102814.31
2023-02-08T09:53:03.180Z,102822.06
2023-02-08T09:55:32.931Z,102814.97
2023-02-08T09:58:03.268Z,102825.13
2023-02-08T10:00:42.616Z,102821.81
2023-02-08T10:03:25.793Z,102817.06
2023-02-08T10:05:52.958Z,102809.78
2023-02-08T10:08:20.412Z,102829.69
2023-02-08T10:10:55.773Z,102834.19
2023-02-08T10:13:50.336Z,102838.03
2023-02-08T10:17:01.473Z,102833.72
2023-02-08T10:19:47.088Z,102839.03
2023-02-08T10:22:41.081Z,102834.66
2023-02-08T10:25:21.888Z,102829.34
2023-02-08T10:28:46.112Z,102828.72
2023-02-08T10:31:34.161Z,102836.72
2023-02-08T10:37:18.074Z,102839.03
2023-02-08T10:39:47.882Z,102842.13
2023-02-08T10:42:18.286Z,102839.69
2023-02-08T10:45:04.073Z,102841.78
2023-02-08T10:47:53.626Z,102839.34
2023-02-08T10:50:42.071Z,102842.09
2023-02-08T10:53:18.124Z,102834.84
2023-02-08T10:55:55.077Z,102836.31
2023-02-08T10:58:33.814Z,102832.81
2023-02-08T11:01:07.310Z,102831.41
2023-02-08T11:03:56.180Z,102830.59
2023-02-08T11:06:32.000Z,102834.88
2023-02-08T11:09:02.205Z,102828.41
2023-02-08T11:11:36.853Z,102833.81
2023-02-08T11:14:16.872Z,102840.66
2023-02-08T11:16:53.801Z,102835.72
2023-02-08T11:19:37.984Z,102831.19
2023-02-08T11:22:09.525Z,102824.91
2023-02-08T11:24:43.999Z,102825.63
2023-02-08T11:27:32.211Z,102828.31
2023-02-08T11:30:17.670Z,102835.94
2023-02-08T11:32:50.668Z,102833.28
2023-02-08T11:35:23.360Z,102830.50
2023-02-08T11:37:55.065Z,102830.34
2023-02-08T11:40:32.605Z,102847.69
2023-02-08T11:43:01.282Z,102856.47
2023-02-08T11:45:31.818Z,102858.78
2023-02-08T11:48:01.797Z,102858.38
2023-02-08T11:50:34.788Z,102866.47
2023-02-08T11:53:04.516Z,102870.00
2023-02-08T11:55:33.928Z,102870.72
2023-02-08T11:58:12.988Z,102875.56
2023-02-08T12:00:41.100Z,102870.06
2023-02-08T12:03:25.439Z,102863.72
2023-02-08T12:06:34.057Z,102861.59
2023-02-08T12:09:20.116Z,102845.44
2023-02-08T12:11:49.227Z,102850.56
2023-02-08T12:14:27.913Z,102850.84
2023-02-08T12:17:20.250Z,102856.81
2023-02-08T12:19:59.257Z,102855.88
2023-02-08T12:22:27.696Z,102841.16
2023-02-08T12:25:20.388Z,102824.41
2023-02-08T12:28:12.014Z,102834.09
2023-02-08T12:31:17.156Z,102813.78
2023-02-08T12:34:10.622Z,102824.41
2023-02-08T12:37:25.274Z,102820.56
2023-02-08T12:40:29.010Z,102817.03
2023-02-08T12:43:20.893Z,102824.66
2023-02-08T12:45:56.843Z,102837.41
2023-02-08T12:48:35.666Z,102829.00
2023-02-08T12:51:37.519Z,102809.00
2023-02-08T12:54:14.716Z,102816.63
2023-02-08T12:56:53.612Z,102833.88
2023-02-08T12:59:35.864Z,102843.59
2023-02-08T13:02:26.886Z,102816.47
2023-02-08T13:04:59.715Z,102815.81
2023-02-08T13:07:34.433Z,102824.97
2023-02-08T13:10:07.220Z,102850.16
2023-02-08T13:12:43.236Z,102842.34
2023-02-08T13:15:28.520Z,102856.59
2023-02-08T13:18:10.145Z,102867.13
2023-02-08T13:20:43.337Z,102859.69
2023-02-08T13:23:25.067Z,102858.66
2023-02-08T13:26:07.041Z,102863.66
2023-02-08T13:28:34.483Z,102875.69
2023-02-08T13:31:11.949Z,102868.81
2023-02-08T13:34:01.282Z,102871.53
2023-02-08T13:36:37.260Z,102872.22
2023-02-08T13:39:07.925Z,102871.19
2023-02-08T13:41:36.514Z,102890.75
2023-02-08T13:44:07.317Z,102889.50
2023-02-08T13:46:45.900Z,102893.69
2023-02-08T13:49:49.865Z,102897.97
2023-02-08T13:52:47.651Z,102898.56
2023-02-08T13:55:39.286Z,102898.56
2023-02-08T13:58:28.204Z,102913.44
2023-02-08T14:00:55.096Z,102919.00
2023-02-08T14:03:35.422Z,102907.69
2023-02-08T14:06:08.133Z,102914.22
2023-02-08T14:09:25.545Z,102908.91
2023-02-08T14:12:02.848Z,102907.75
2023-02-08T14:14:38.668Z,102916.63
2023-02-08T14:17:05.514Z,102915.25
2023-02-08T14:19:35.430Z,102924.13
2023-02-08T14:22:18.366Z,102936.78
2023-02-08T14:24:50.295Z,102942.88
2023-02-08T14:27:33.899Z,102943.06
2023-02-08T14:30:09.204Z,102944.13
2023-02-08T14:32:39.961Z,102943.03
2023-02-08T14:35:08.503Z,102941.47
2023-02-08T14:37:36.827Z,102942.94
2023-02-08T14:40:24.628Z,102945.34
2023-02-08T14:43:00.631Z,102944.47
2023-02-08T14:45:32.301Z,102952.25
2023-02-08T14:48:17.776Z,102950.31
2023-02-08T14:51:12.014Z,102942.47
2023-02-08T14:54:03.839Z,102957.50
2023-02-08T14:56:50.458Z,102962.06
2023-02-08T14:59:20.945Z,102956.50
2023-02-08T15:01:56.477Z,102971.44
2023-02-08T15:04:23.457Z,102967.75
2023-02-08T15:07:13.392Z,102960.97
2023-02-08T15:09:42.833Z,102967.94
2023-02-08T15:12:46.860Z,102971.59
2023-02-08T15:15:31.998Z,102968.94
2023-02-08T15:18:00.207Z,102969.88
2023-02-08T15:20:30.526Z,102966.31
2023-02-08T15:23:04.297Z,102970.72
2023-02-08T15:25:36.976Z,102968.25
2023-02-08T15:28:17.937Z,102979.47
2023-02-08T15:30:45.682Z,102973.28
2023-02-08T15:33:21.388Z,102962.13
2023-02-08T15:36:06.568Z,102974.09
2023-02-08T15:38:37.536Z,102965.56
2023-02-08T15:41:10.988Z,102970.09
2023-02-08T15:43:39.344Z,102984.81
2023-02-08T15:46:24.802Z,102992.72
2023-02-08T15:48:52.974Z,102986.09
2023-02-08T15:51:23.265Z,102990.28
2023-02-08T15:53:53.653Z,102993.22
2023-02-08T15:56:36.430Z,102995.00
2023-02-08T15:59:07.663Z,102987.91
2023-02-08T16:01:35.171Z,102992.44
2023-02-08T16:04:12.645Z,103000.06
2023-02-08T16:06:46.715Z,103006.13
2023-02-08T16:09:19.354Z,102999.16
2023-02-08T16:11:50.151Z,102998.13
2023-02-08T16:14:24.249Z,102992.84
2023-02-08T16:16:57.005Z,103001.78
2023-02-08T16:19:29.635Z,103006.13
2023-02-08T16:22:21.598Z,103001.88
2023-02-08T16:24:51.020Z,103003.81
2023-02-08T16:27:25.839Z,103003.44
2023-02-08T16:29:53.360Z,103004.09
2023-02-08T16:32:29.337Z,102996.09
2023-02-08T16:34:56.751Z,103008.47
2023-02-08T16:37:30.849Z,103014.03
2023-02-08T16:40:24.011Z,103000.88
2023-02-08T16:43:13.481Z,103008.75
2023-02-08T16:45:40.536Z,103008.47
2023-02-08T16:48:36.151Z,103007.44
2023-02-08T16:51:06.072Z,103002.28
2023-02-08T16:53:41.869Z,103023.69
2023-02-08T16:56:11.519Z,103017.25
2023-02-08T16:58:38.806Z,103029.63
2023-02-08T17:01:06.358Z,103017.38
2023-02-08T17:03:33.380Z,103029.25
2023-02-08T17:06:01.141Z,103025.53
2023-02-08T17:08:28.257Z,103022.69
2023-02-08T17:10:59.208Z,103031.72
2023-02-08T17:13:29.538Z,103009.25
2023-02-08T17:16:00.190Z,103014.16
2023-02-08T17:18:27.301Z,103026.28
2023-02-08T17:20:59.649Z,103029.75
2023-02-08T17:23:26.803Z,103026.56
2023-02-08T17:25:55.022Z,103028.06
2023-02-08T17:28:22.774Z,103042.66
2023-02-08T17:30:50.703Z,103040.47
2023-02-08T17:33:20.662Z,103045.63
2023-02-08T17:35:50.772Z,103038.03
2023-02-08T17:38:18.994Z,103049.00
2023-02-08T17:40:46.117Z,103046.00
2023-02-08T17:43:13.762Z,103052.84
2023-02-08T17:45:42.857Z,103045.25
2023-02-08T17:48:10.310Z,103055.19
2023-02-08T17:50:37.410Z,103045.13
2023-02-08T17:53:04.471Z,103046.38
2023-02-08T17:55:31.702Z,103047.28
2023-02-08T17:57:58.828Z,103045.13
2023-02-08T18:00:26.320Z,103047.03
2023-02-08T18:02:55.499Z,103037.63
2023-02-08T18:05:25.633Z,103050.41
2023-02-08T18:07:54.696Z,103052.56
2023-02-08T18:10:21.943Z,103045.22
2023-02-08T18:12:49.070Z,103049.09
2023-02-08T18:15:20.206Z,103057.97
2023-02-08T18:17:47.850Z,103051.03
2023-02-08T18:20:16.162Z,103060.03
2023-02-08T18:22:44.115Z,103071.41
2023-02-08T18:25:13.112Z,103069.22
2023-02-08T18:27:40.337Z,103068.56
2023-02-08T18:30:08.632Z,103068.56
2023-02-08T18:32:35.663Z,103091.91
2023-02-08T18:35:04.371Z,103078.66
2023-02-08T18:37:32.342Z,103079.91
2023-02-08T18:40:00.204Z,103079.66
2023-02-08T18:42:27.356Z,103089.47
2023-02-08T18:44:54.704Z,103088.56
2023-02-08T18:47:21.706Z,103080.16
2023-02-08T18:49:56.212Z,103097.56
2023-02-08T18:52:24.004Z,103088.31
2023-02-08T18:54:51.288Z,103083.75
2023-02-08T18:57:18.627Z,103090.75
2023-02-08T18:59:45.625Z,103080.41
2023-02-08T19:02:19.189Z,103077.06
2023-02-08T19:04:46.296Z,103076.16
2023-02-08T19:07:14.028Z,103093.59
2023-02-08T19:09:41.403Z,103086.81
2023-02-08T19:12:09.285Z,103073.69
2023-02-08T19:14:36.670Z,103079.38
2023-02-08T19:17:04.039Z,103063.63
2023-02-08T19:19:31.164Z,103068.22
2023-02-08T19:21:58.335Z,103072.84
2023-02-08T19:24:25.382Z,103071.16
2023-02-08T19:26:52.372Z,103056.00
2023-02-08T19:29:22.933Z,103065.97
2023-02-08T19:31:50.682Z,103065.13
2023-02-08T19:34:19.111Z,103061.50
2023-02-08T19:36:54.200Z,103058.63
2023-02-08T19:39:26.221Z,103064.88
2023-02-08T19:41:54.367Z,103062.28
2023-02-08T19:44:22.064Z,103055.56
2023-02-08T19:46:51.293Z,103059.34
2023-02-08T19:49:18.496Z,103032.16
2023-02-08T19:51:46.110Z,103048.34
2023-02-08T19:54:17.042Z,103052.59
2023-02-08T19:56:44.570Z,103038.84
2023-02-08T19:59:27.387Z,103041.66
2023-02-08T20:01:55.439Z,103046.03
2023-02-08T20:04:23.103Z,103053.31
2023-02-08T20:06:54.379Z,103062.41
2023-02-08T20:09:21.980Z,103049.66
2023-02-08T20:11:56.961Z,103049.66
2023-02-08T20:14:25.858Z,103057.16
2023-02-08T20:16:52.947Z,103064.88
2023-02-08T20:19:20.026Z,103056.66
2023-02-08T20:21:47.054Z,103075.97
2023-02-08T20:24:14.106Z,103075.78
2023-02-08T20:26:43.989Z,103077.72
2023-02-08T20:29:12.009Z,103076.94
2023-02-08T20:31:42.716Z,103078.34
2023-02-08T20:34:13.219Z,103067.09
2023-02-08T20:36:49.714Z,103071.13
2023-02-08T20:39:21.852Z,103065.44
2023-02-08T20:41:49.243Z,103073.22
2023-02-08T20:44:18.350Z,103070.75
2023-02-08T20:46:46.655Z,103059.25
2023-02-08T20:49:19.449Z,103063.13
2023-02-08T20:51:46.360Z,103058.22
2023-02-08T20:54:13.337Z,103074.72
2023-02-08T20:56:40.322Z,103076.50
2023-02-08T20:59:10.415Z,103066.97
2023-02-08T21:01:37.515Z,103063.13
2023-02-08T21:04:05.625Z,103081.19
2023-02-08T21:06:35.200Z,103067.50
2023-02-08T21:09:08.085Z,103073.16
2023-02-08T21:11:35.595Z,103075.47
2023-02-08T21:14:03.793Z,103072.13
2023-02-08T21:16:31.238Z,103071.34
2023-02-08T21:18:58.689Z,103082.56
2023-02-08T21:21:26.537Z,103080.63
2023-02-08T21:23:53.552Z,103077.28
2023-02-08T21:26:21.680Z,103058.41
2023-02-08T21:28:52.047Z,103087.16
2023-02-08T21:31:22.324Z,103078.25
2023-02-08T21:33:50.745Z,103083.41
2023-02-08T21:36:20.659Z,103081.59
2023-02-08T21:38:47.916Z,103081.41
2023-02-08T21:41:22.052Z,103079.53
2023-02-08T21:43:50.204Z,103080.88
2023-02-08T21:46:18.045Z,103093.22
2023-02-08T21:49:04.000Z,103078.53
2023-02-08T21:51:49.581Z,103083.41
2023-02-08T21:54:37.839Z,103094.72
2023-02-08T21:57:07.167Z,103100.47
2023-02-08T21:59:36.937Z,103094.91
2023-02-08T22:02:07.891Z,103082.78
2023-02-08T22:04:54.974Z,103099.88
2023-02-08T22:07:23.424Z,103099.09
2023-02-08T22:09:50.784Z,103095.56
2023-02-08T22:12:23.341Z,103084.13
2023-02-08T22:14:50.991Z,103093.78
2023-02-08T22:17:18.426Z,103089.63
2023-02-08T22:19:45.353Z,103088.09
2023-02-08T22:22:12.427Z,103103.41
2023-02-08T22:24:39.440Z,103096.06
2023-02-08T22:27:06.457Z,103095.50
2023-02-08T22:29:33.502Z,103099.50
2023-02-08T22:32:01.258Z,103093.22
2023-02-08T22:34:28.633Z,103080.34
2023-02-08T22:36:55.666Z,103094.47
2023-02-08T22:39:23.013Z,103069.22
2023-02-08T22:41:49.937Z,103081.59
2023-02-08T22:44:17.080Z,103073.94
2023-02-08T22:46:44.095Z,103066.44
2023-02-08T22:49:11.008Z,103061.03
2023-02-08T22:51:38.286Z,103050.00
2023-02-08T22:54:05.261Z,103063.66
2023-02-08T22:56:32.653Z,103059.53
2023-02-08T22:59:00.680Z,103053.34
2023-02-08T23:01:28.257Z,103062.06
2023-02-08T23:03:55.182Z,103054.34
2023-02-08T23:06:22.172Z,103050.72
2023-02-08T23:08:49.272Z,103035.00
2023-02-08T23:11:16.809Z,103042.75
2023-02-08T23:13:44.010Z,103041.59
2023-02-08T23:16:15.850Z,103026.63
2023-02-08T23:18:43.618Z,103034.34
2023-02-08T23:21:14.006Z,103047.38
2023-02-08T23:23:41.190Z,103017.59
2023-02-08T23:26:10.877Z,103035.63
2023-02-08T23:28:38.102Z,103029.03
2023-02-08T23:31:07.408Z,103036.19
2023-02-08T23:33:35.133Z,103033.75
2023-02-08T23:36:09.440Z,103043.81
2023-02-08T23:38:36.363Z,103045.56
2023-02-08T23:41:08.633Z,103047.53
2023-02-08T23:43:36.109Z,103036.81
2023-02-08T23:46:27.360Z,103039.28
2023-02-08T23:48:55.198Z,103045.03
2023-02-08T23:51:24.019Z,103045.28
2023-02-08T23:53:51.865Z,103055.03
2023-02-08T23:56:25.267Z,103061.69
2023-02-08T23:58:55.144Z,103066.16
